createdAt,value
2019-05-01T00:01:34.670Z,11.77
2019-05-01T00:04:26.088Z,13.60
2019-05-01T00:07:00.434Z,13.73
2019-05-01T00:09:31.283Z,10.80
2019-05-01T00:12:02.073Z,13.37
2019-05-01T00:14:32.002Z,12.27
2019-05-01T00:17:01.890Z,13.23
2019-05-01T00:19:33.591Z,14.23
2019-05-01T00:22:03.519Z,14.37
2019-05-01T00:24:34.746Z,12.00
2019-05-01T00:27:04.307Z,12.33
2019-05-01T00:29:34.257Z,14.73
2019-05-01T00:32:04.191Z,13.00
2019-05-01T00:34:35.305Z,11.73
2019-05-01T00:37:04.862Z,12.60
2019-05-01T00:39:39.770Z,10.50
2019-05-01T00:42:09.560Z,11.03
2019-05-01T00:44:39.337Z,8.43
2019-05-01T00:47:10.924Z,10.67
2019-05-01T00:49:40.567Z,13.43
2019-05-01T00:52:11.951Z,13.13
2019-05-01T00:54:43.589Z,12.10
2019-05-01T00:57:24.149Z,9.07
2019-05-01T01:00:16.637Z,11.10
2019-05-01T01:02:49.762Z,11.67
2019-05-01T01:05:19.494Z,11.17
2019-05-01T01:07:49.250Z,11.93
2019-05-01T01:10:18.825Z,7.50
2019-05-01T01:12:48.398Z,11.93
2019-05-01T01:15:18.208Z,10.33
2019-05-01T01:17:48.297Z,8.00
2019-05-01T01:20:18.093Z,7.77
2019-05-01T01:22:48.374Z,8.20
2019-05-01T01:25:18.184Z,6.33
2019-05-01T01:27:47.826Z,6.97
2019-05-01T01:30:17.751Z,7.53
2019-05-01T01:32:48.053Z,6.77
2019-05-01T01:35:18.853Z,8.47
2019-05-01T01:37:48.660Z,11.30
2019-05-01T01:40:18.845Z,10.07
2019-05-01T01:42:50.369Z,10.10
2019-05-01T01:45:37.701Z,6.13
2019-05-01T01:48:14.987Z,9.60
2019-05-01T01:50:46.397Z,9.50
2019-05-01T01:53:19.170Z,8.60
2019-05-01T01:55:50.365Z,8.07
2019-05-01T01:58:21.632Z,7.27
2019-05-01T02:01:10.533Z,10.00
2019-05-01T02:03:43.268Z,5.90
2019-05-01T02:06:13.604Z,9.37
2019-05-01T02:08:55.898Z,9.40
2019-05-01T02:11:16.317Z,8.20
2019-05-01T02:13:46.145Z,9.20
2019-05-01T02:16:16.159Z,2.87
2019-05-01T02:18:45.777Z,8.80
2019-05-01T02:21:15.372Z,9.20
2019-05-01T02:23:45.647Z,7.97
2019-05-01T02:26:18.712Z,8.87
2019-05-01T02:29:08.456Z,5.20
2019-05-01T02:31:42.999Z,8.40
2019-05-01T02:34:12.885Z,8.17
2019-05-01T02:36:44.416Z,7.97
2019-05-01T02:39:14.906Z,8.87
2019-05-01T02:41:46.468Z,9.00
2019-05-01T02:44:23.139Z,7.43
2019-05-01T02:46:54.558Z,8.30
2019-05-01T02:49:57.378Z,2.87
2019-05-01T02:52:32.038Z,8.90
2019-05-01T02:55:06.056Z,10.03
2019-05-01T02:57:37.817Z,6.93
2019-05-01T03:00:07.824Z,8.00
2019-05-01T03:02:40.749Z,10.33
2019-05-01T03:05:12.226Z,7.00
2019-05-01T03:07:43.732Z,9.73
2019-05-01T03:10:13.775Z,8.77
2019-05-01T03:12:46.355Z,9.07
2019-05-01T03:15:16.764Z,9.57
2019-05-01T03:17:56.443Z,8.03
2019-05-01T03:20:45.890Z,9.83
2019-05-01T03:23:44.057Z,10.53
2019-05-01T03:26:14.243Z,6.63
2019-05-01T03:28:44.137Z,5.00
2019-05-01T03:31:15.665Z,4.73
2019-05-01T03:33:46.662Z,6.17
2019-05-01T03:36:17.182Z,6.07
2019-05-01T03:38:47.789Z,6.80
2019-05-01T03:41:18.676Z,6.97
2019-05-01T03:43:50.891Z,4.83
2019-05-01T03:46:21.365Z,7.73
2019-05-01T03:48:52.384Z,4.50
2019-05-01T03:51:22.596Z,4.33
2019-05-01T03:53:53.747Z,9.50
2019-05-01T03:56:24.210Z,8.03
2019-05-01T03:58:54.499Z,7.77
2019-05-01T04:01:45.692Z,7.47
2019-05-01T04:04:21.970Z,3.90
2019-05-01T04:06:52.536Z,9.23
2019-05-01T04:09:22.423Z,5.93
2019-05-01T04:11:53.869Z,6.03
2019-05-01T04:14:24.720Z,7.40
2019-05-01T04:17:06.678Z,7.43
2019-05-01T04:19:37.066Z,9.20
2019-05-01T04:22:11.695Z,4.60
2019-05-01T04:24:42.779Z,9.13
2019-05-01T04:27:19.693Z,5.60
2019-05-01T04:30:11.582Z,9.60
2019-05-01T04:32:52.254Z,5.10
2019-05-01T04:35:33.323Z,7.83
2019-05-01T04:38:03.473Z,8.47
2019-05-01T04:40:33.739Z,7.83
2019-05-01T04:43:04.024Z,6.73
2019-05-01T04:45:34.282Z,10.23
2019-05-01T04:48:04.407Z,6.83
2019-05-01T04:50:34.364Z,4.57
2019-05-01T04:53:04.394Z,3.10
2019-05-01T04:55:34.644Z,9.87
2019-05-01T04:58:05.485Z,5.60
2019-05-01T05:00:36.628Z,6.03
2019-05-01T05:03:11.636Z,7.23
2019-05-01T05:05:41.977Z,6.00
2019-05-01T05:08:12.998Z,6.93
2019-05-01T05:10:43.017Z,9.33
2019-05-01T05:13:40.687Z,5.60
2019-05-01T05:16:23.295Z,3.73
2019-05-01T05:18:53.679Z,8.63
2019-05-01T05:21:23.927Z,6.73
2019-05-01T05:23:54.988Z,9.50
2019-05-01T05:26:25.375Z,7.27
2019-05-01T05:28:56.846Z,5.00
2019-05-01T05:31:30.092Z,6.60
2019-05-01T05:34:01.141Z,8.63
2019-05-01T05:36:34.302Z,9.80
2019-05-01T05:39:34.218Z,5.20
2019-05-01T05:42:06.718Z,7.43
2019-05-01T05:44:37.069Z,7.20
2019-05-01T05:47:09.247Z,7.60
2019-05-01T05:49:39.684Z,6.83
2019-05-01T05:52:30.848Z,5.70
2019-05-01T05:55:25.863Z,6.47
2019-05-01T05:58:10.728Z,6.73
2019-05-01T06:01:03.688Z,5.43
2019-05-01T06:04:06.588Z,5.90
2019-05-01T06:07:03.544Z,8.17
2019-05-01T06:09:44.690Z,7.80
2019-05-01T06:12:30.168Z,7.40
2019-05-01T06:15:13.429Z,7.27
2019-05-01T06:17:50.845Z,6.27
2019-05-01T06:20:41.698Z,6.50
2019-05-01T06:23:30.955Z,6.03
2019-05-01T06:26:22.730Z,8.03
2019-05-01T06:28:55.865Z,5.47
2019-05-01T06:31:25.455Z,3.40
2019-05-01T06:33:56.710Z,2.40
2019-05-01T06:36:27.169Z,8.43
2019-05-01T06:39:00.640Z,7.70
2019-05-01T06:41:42.469Z,5.30
2019-05-01T06:44:15.985Z,6.17
2019-05-01T06:46:58.217Z,8.17
2019-05-01T06:49:44.623Z,5.80
2019-05-01T06:52:18.748Z,4.27
2019-05-01T06:54:52.097Z,5.47
2019-05-01T06:57:23.730Z,2.33
2019-05-01T07:00:03.266Z,7.73
2019-05-01T07:02:34.975Z,5.20
2019-05-01T07:05:09.078Z,5.93
2019-05-01T07:07:38.304Z,5.53
2019-05-01T07:10:09.148Z,4.77
2019-05-01T07:12:39.610Z,4.77
2019-05-01T07:15:10.189Z,6.37
2019-05-01T07:17:47.939Z,2.30
2019-05-01T07:20:42.108Z,5.63
2019-05-01T07:23:12.739Z,5.50
2019-05-01T07:25:44.516Z,5.33
2019-05-01T07:28:15.115Z,4.57
2019-05-01T07:30:54.833Z,5.33
2019-05-01T07:33:23.033Z,6.10
2019-05-01T07:35:54.124Z,3.27
2019-05-01T07:38:38.192Z,3.87
2019-05-01T07:41:05.748Z,3.60
2019-05-01T07:44:10.953Z,4.67
2019-05-01T07:47:05.368Z,4.87
2019-05-01T07:49:56.699Z,4.00
2019-05-01T07:52:28.723Z,5.17
2019-05-01T07:54:59.829Z,3.10
2019-05-01T07:57:34.345Z,5.50
2019-05-01T08:00:08.027Z,1.87
2019-05-01T08:02:35.362Z,4.07
2019-05-01T08:05:10.082Z,2.90
2019-05-01T08:07:37.049Z,5.50
2019-05-01T08:10:07.518Z,4.13
2019-05-01T08:12:55.390Z,5.23
2019-05-01T08:15:27.618Z,2.13
2019-05-01T08:17:57.124Z,5.70
2019-05-01T08:20:34.866Z,3.60
2019-05-01T08:23:07.627Z,3.00
2019-05-01T08:25:37.633Z,3.60
2019-05-01T08:28:15.774Z,4.40
2019-05-01T08:31:13.824Z,4.20
2019-05-01T08:33:56.250Z,3.00
2019-05-01T08:36:26.272Z,2.33
2019-05-01T08:38:57.180Z,4.93
2019-05-01T08:41:31.857Z,4.10
2019-05-01T08:43:58.794Z,4.47
2019-05-01T08:46:54.145Z,1.30
2019-05-01T08:49:33.595Z,4.33
2019-05-01T08:52:04.853Z,1.77
2019-05-01T08:54:35.316Z,3.57
2019-05-01T08:57:07.803Z,2.30
2019-05-01T08:59:37.031Z,4.27
2019-05-01T09:02:09.511Z,2.20
2019-05-01T09:04:41.191Z,2.27
2019-05-01T09:07:14.674Z,4.30
2019-05-01T09:09:45.475Z,4.77
2019-05-01T09:12:17.232Z,2.70
2019-05-01T09:14:47.798Z,3.00
2019-05-01T09:17:18.706Z,3.13
2019-05-01T09:19:49.216Z,3.67
2019-05-01T09:22:19.952Z,3.00
2019-05-01T09:24:50.236Z,4.20
2019-05-01T09:27:45.342Z,2.70
2019-05-01T09:30:26.888Z,4.00
2019-05-01T09:32:57.576Z,4.33
2019-05-01T09:35:29.900Z,4.20
2019-05-01T09:38:02.578Z,3.63
2019-05-01T09:40:34.889Z,4.27
2019-05-01T09:43:10.500Z,4.33
2019-05-01T09:45:41.376Z,1.40
2019-05-01T09:48:11.512Z,3.70
2019-05-01T09:50:47.397Z,6.40
2019-05-01T09:53:29.752Z,6.13
2019-05-01T09:56:08.842Z,3.07
2019-05-01T09:58:39.495Z,2.83
2019-05-01T10:01:10.934Z,4.33
2019-05-01T10:03:49.571Z,4.00
2019-05-01T10:06:20.578Z,8.03
2019-05-01T10:08:50.778Z,5.73
2019-05-01T10:11:20.974Z,4.17
2019-05-01T10:13:53.631Z,5.20
2019-05-01T10:16:22.822Z,5.33
2019-05-01T10:18:55.465Z,3.77
2019-05-01T10:21:27.280Z,4.10
2019-05-01T10:23:57.425Z,4.93
2019-05-01T10:26:31.214Z,2.03
2019-05-01T10:29:21.453Z,4.90
2019-05-01T10:32:08.833Z,1.67
2019-05-01T10:34:47.293Z,4.10
2019-05-01T10:37:17.943Z,5.93
2019-05-01T10:39:54.192Z,3.93
2019-05-01T10:42:22.328Z,3.33
2019-05-01T10:44:52.319Z,2.80
2019-05-01T10:47:29.166Z,3.37
2019-05-01T10:49:59.305Z,4.50
2019-05-01T10:52:29.998Z,3.30
2019-05-01T10:55:00.392Z,4.50
2019-05-01T10:57:30.344Z,2.00
2019-05-01T11:00:02.457Z,3.23
2019-05-01T11:02:32.362Z,2.67
2019-05-01T11:05:02.860Z,5.57
2019-05-01T11:07:32.733Z,4.27
2019-05-01T11:10:06.921Z,2.80
2019-05-01T11:12:37.110Z,3.30
2019-05-01T11:15:08.694Z,5.07
2019-05-01T11:17:39.585Z,5.87
2019-05-01T11:20:09.832Z,6.40
2019-05-01T11:22:40.985Z,4.17
2019-05-01T11:25:13.491Z,2.60
2019-05-01T11:27:43.504Z,2.63
2019-05-01T11:30:17.690Z,6.50
2019-05-01T11:33:09.161Z,4.63
2019-05-01T11:36:16.431Z,6.37
2019-05-01T11:38:59.989Z,4.00
2019-05-01T11:41:43.353Z,4.70
2019-05-01T11:44:13.138Z,2.87
2019-05-01T11:46:43.671Z,4.60
2019-05-01T11:49:13.869Z,4.67
2019-05-01T11:51:43.749Z,5.10
2019-05-01T11:54:35.920Z,4.03
2019-05-01T11:57:19.431Z,5.03
2019-05-01T12:00:09.242Z,1.80
2019-05-01T12:03:27.234Z,2.83
2019-05-01T12:06:22.156Z,3.30
2019-05-01T12:08:56.765Z,7.10
2019-05-01T12:12:02.957Z,5.30
2019-05-01T12:14:34.887Z,5.30
2019-05-01T12:17:29.955Z,4.97
2019-05-01T12:20:02.390Z,5.70
2019-05-01T12:22:32.239Z,7.20
2019-05-01T12:25:04.828Z,7.27
2019-05-01T12:27:35.082Z,3.57
2019-05-01T12:30:05.500Z,3.13
2019-05-01T12:32:35.765Z,4.10
2019-05-01T12:35:06.680Z,8.40
2019-05-01T12:37:40.725Z,6.80
2019-05-01T12:40:16.079Z,8.20
2019-05-01T12:42:46.267Z,6.00
2019-05-01T12:45:18.064Z,3.90
2019-05-01T12:48:01.699Z,5.33
2019-05-01T12:50:31.806Z,4.23
2019-05-01T12:53:20.018Z,7.50
2019-05-01T12:56:15.499Z,4.77
2019-05-01T12:58:46.378Z,4.63
2019-05-01T13:01:16.732Z,3.17
2019-05-01T13:03:47.481Z,5.23
2019-05-01T13:06:17.965Z,5.30
2019-05-01T13:08:47.855Z,3.93
2019-05-01T13:11:17.945Z,9.13
2019-05-01T13:13:48.029Z,6.70
2019-05-01T13:16:19.855Z,8.50
2019-05-01T13:18:49.947Z,6.93
2019-05-01T13:21:20.213Z,6.17
2019-05-01T13:23:50.591Z,7.63
2019-05-01T13:26:30.178Z,5.10
2019-05-01T13:29:08.281Z,6.97
2019-05-01T13:31:45.470Z,4.83
2019-05-01T13:34:16.062Z,7.83
2019-05-01T13:36:46.046Z,9.17
2019-05-01T13:39:16.109Z,5.50
2019-05-01T13:41:46.550Z,5.73
2019-05-01T13:44:16.286Z,6.77
2019-05-01T13:46:47.363Z,6.07
2019-05-01T13:49:17.656Z,6.30
2019-05-01T13:51:47.780Z,7.67
2019-05-01T13:54:17.896Z,7.07
2019-05-01T13:56:48.334Z,5.40
2019-05-01T13:59:18.636Z,3.40
2019-05-01T14:01:48.555Z,5.53
2019-05-01T14:04:21.600Z,3.83
2019-05-01T14:06:52.077Z,5.60
2019-05-01T14:09:27.231Z,5.27
2019-05-01T14:11:57.608Z,4.47
2019-05-01T14:14:27.449Z,8.10
2019-05-01T14:16:57.404Z,2.80
2019-05-01T14:19:28.945Z,5.83
2019-05-01T14:22:35.022Z,7.30
2019-05-01T14:25:06.812Z,5.63
2019-05-01T14:27:37.656Z,3.97
2019-05-01T14:30:09.289Z,2.83
2019-05-01T14:32:42.064Z,6.17
2019-05-01T14:35:13.098Z,3.73
2019-05-01T14:37:43.320Z,4.00
2019-05-01T14:40:13.519Z,6.53
2019-05-01T14:42:43.619Z,7.10
2019-05-01T14:45:14.098Z,6.00
2019-05-01T14:47:43.942Z,6.97
2019-05-01T14:50:15.155Z,5.03
2019-05-01T14:52:45.144Z,6.90
2019-05-01T14:55:17.409Z,6.87
2019-05-01T14:57:50.529Z,6.17
2019-05-01T15:00:20.817Z,6.33
2019-05-01T15:02:52.204Z,4.70
2019-05-01T15:05:22.168Z,5.23
2019-05-01T15:07:52.257Z,8.07
2019-05-01T15:10:23.349Z,5.97
2019-05-01T15:12:54.995Z,7.17
2019-05-01T15:15:44.112Z,9.27
2019-05-01T15:18:33.178Z,5.90
2019-05-01T15:21:03.021Z,6.20
2019-05-01T15:23:38.369Z,5.43
2019-05-01T15:26:08.419Z,9.33
2019-05-01T15:28:39.510Z,5.70
2019-05-01T15:31:09.443Z,5.50
2019-05-01T15:33:40.906Z,7.50
2019-05-01T15:36:10.782Z,6.07
2019-05-01T15:38:44.093Z,6.90
2019-05-01T15:41:35.682Z,7.73
2019-05-01T15:44:36.845Z,4.83
2019-05-01T15:47:06.844Z,6.73
2019-05-01T15:49:37.127Z,4.30
2019-05-01T15:52:07.088Z,6.47
2019-05-01T15:54:36.851Z,6.10
2019-05-01T15:57:07.028Z,4.33
2019-05-01T15:59:37.299Z,7.30
2019-05-01T16:02:07.930Z,8.67
2019-05-01T16:04:38.369Z,5.53
2019-05-01T16:07:13.021Z,8.73
2019-05-01T16:09:44.166Z,5.10
2019-05-01T16:12:27.103Z,5.73
2019-05-01T16:14:57.474Z,7.27
2019-05-01T16:17:32.136Z,4.27
2019-05-01T16:20:02.508Z,3.50
2019-05-01T16:22:32.818Z,5.53
2019-05-01T16:25:09.032Z,5.27
2019-05-01T16:27:40.576Z,5.60
2019-05-01T16:30:11.360Z,9.73
2019-05-01T16:32:41.262Z,7.00
2019-05-01T16:35:12.145Z,5.17
2019-05-01T16:37:42.663Z,7.37
2019-05-01T16:40:34.524Z,9.73
2019-05-01T16:43:06.241Z,5.67
2019-05-01T16:45:36.868Z,5.13
2019-05-01T16:48:08.002Z,6.53
2019-05-01T16:50:38.406Z,7.80
2019-05-01T16:53:08.320Z,5.03
2019-05-01T16:55:42.647Z,5.30
2019-05-01T16:58:15.433Z,8.90
2019-05-01T17:01:05.255Z,9.37
2019-05-01T17:04:06.586Z,5.87
2019-05-01T17:07:05.776Z,5.37
2019-05-01T17:09:45.216Z,5.40
2019-05-01T17:12:17.024Z,6.73
2019-05-01T17:14:48.204Z,5.43
2019-05-01T17:17:22.289Z,9.53
2019-05-01T17:19:53.479Z,8.93
2019-05-01T17:22:24.775Z,5.03
2019-05-01T17:24:55.261Z,5.73
2019-05-01T17:27:32.262Z,6.43
2019-05-01T17:30:07.078Z,8.53
2019-05-01T17:32:44.257Z,7.93
2019-05-01T17:35:13.416Z,3.37
2019-05-01T17:37:45.010Z,4.87
2019-05-01T17:40:15.096Z,6.53
2019-05-01T17:42:46.505Z,8.17
2019-05-01T17:45:16.929Z,4.27
2019-05-01T17:47:52.716Z,4.53
2019-05-01T17:50:22.342Z,4.87
2019-05-01T17:52:53.168Z,5.63
2019-05-01T17:55:23.136Z,5.97
2019-05-01T17:57:52.961Z,7.67
2019-05-01T18:00:40.974Z,4.50
2019-05-01T18:03:30.264Z,4.73
2019-05-01T18:06:19.337Z,4.30
2019-05-01T18:09:02.195Z,6.03
2019-05-01T18:11:22.703Z,5.57
2019-05-01T18:13:53.736Z,5.57
2019-05-01T18:16:23.887Z,7.07
2019-05-01T18:18:53.847Z,6.43
2019-05-01T18:21:24.842Z,8.07
2019-05-01T18:24:18.840Z,5.13
2019-05-01T18:27:19.051Z,5.60
2019-05-01T18:29:50.765Z,6.20
2019-05-01T18:32:41.646Z,6.80
2019-05-01T18:35:16.068Z,6.60
2019-05-01T18:37:52.329Z,5.17
2019-05-01T18:40:37.599Z,5.23
2019-05-01T18:43:10.061Z,4.03
2019-05-01T18:45:52.068Z,6.10
2019-05-01T18:48:24.721Z,6.00
2019-05-01T18:50:56.305Z,5.40
2019-05-01T18:53:34.902Z,3.73
2019-05-01T18:56:05.475Z,3.67
2019-05-01T18:58:37.429Z,4.47
2019-05-01T19:01:09.547Z,7.27
2019-05-01T19:03:42.227Z,5.93
2019-05-01T19:06:12.163Z,6.00
2019-05-01T19:08:43.995Z,6.33
2019-05-01T19:11:16.050Z,5.80
2019-05-01T19:13:47.228Z,4.40
2019-05-01T19:16:17.359Z,4.93
2019-05-01T19:18:47.317Z,3.43
2019-05-01T19:21:23.655Z,3.73
2019-05-01T19:23:53.071Z,8.80
2019-05-01T19:26:23.973Z,5.10
2019-05-01T19:28:53.795Z,5.83
2019-05-01T19:31:23.952Z,4.47
2019-05-01T19:33:55.089Z,5.13
2019-05-01T19:36:25.364Z,4.50
2019-05-01T19:38:56.332Z,5.40
2019-05-01T19:41:26.234Z,3.50
2019-05-01T19:43:56.249Z,5.50
2019-05-01T19:46:30.171Z,4.53
2019-05-01T19:49:02.081Z,6.30
2019-05-01T19:51:32.696Z,5.50
2019-05-01T19:54:04.437Z,5.50
2019-05-01T19:56:37.729Z,5.13
2019-05-01T19:59:07.955Z,7.63
2019-05-01T20:01:43.695Z,6.03
2019-05-01T20:04:13.107Z,5.90
2019-05-01T20:06:43.328Z,4.83
2019-05-01T20:09:13.310Z,6.90
2019-05-01T20:11:43.125Z,7.33
2019-05-01T20:14:13.013Z,7.13
2019-05-01T20:16:43.373Z,5.00
2019-05-01T20:19:15.473Z,7.53
2019-05-01T20:21:45.469Z,4.33
2019-05-01T20:24:15.421Z,5.93
2019-05-01T20:26:47.642Z,3.27
2019-05-01T20:29:17.921Z,5.30
2019-05-01T20:31:50.588Z,3.90
2019-05-01T20:34:19.538Z,6.23
2019-05-01T20:36:50.002Z,6.17
2019-05-01T20:39:20.218Z,4.50
2019-05-01T20:41:51.470Z,3.70
2019-05-01T20:44:23.874Z,4.03
2019-05-01T20:46:53.201Z,4.37
2019-05-01T20:49:22.975Z,2.30
2019-05-01T20:51:53.362Z,3.93
2019-05-01T20:54:23.730Z,4.03
2019-05-01T20:57:07.858Z,5.67
2019-05-01T20:59:39.125Z,5.03
2019-05-01T21:02:10.001Z,2.40
2019-05-01T21:04:56.304Z,5.33
2019-05-01T21:07:35.879Z,4.87
2019-05-01T21:10:07.134Z,5.00
2019-05-01T21:12:37.257Z,4.37
2019-05-01T21:15:07.402Z,2.67
2019-05-01T21:17:39.339Z,6.30
2019-05-01T21:20:09.527Z,3.17
2019-05-01T21:22:39.525Z,3.83
2019-05-01T21:25:09.907Z,4.70
2019-05-01T21:27:41.173Z,4.77
2019-05-01T21:30:13.908Z,3.87
2019-05-01T21:32:44.409Z,3.40
2019-05-01T21:35:14.567Z,5.57
2019-05-01T21:37:44.616Z,3.97
2019-05-01T21:40:14.960Z,4.73
2019-05-01T21:42:47.408Z,3.33
2019-05-01T21:45:16.259Z,6.30
2019-05-01T21:47:48.873Z,5.43
2019-05-01T21:50:26.416Z,3.40
2019-05-01T21:53:06.526Z,2.27
2019-05-01T21:55:36.540Z,4.67
2019-05-01T21:58:06.808Z,4.47
2019-05-01T22:00:38.997Z,5.17
2019-05-01T22:03:09.508Z,4.40
2019-05-01T22:05:40.894Z,5.00
2019-05-01T22:08:11.984Z,6.00
2019-05-01T22:10:51.760Z,3.60
2019-05-01T22:13:14.122Z,3.80
2019-05-01T22:15:49.118Z,5.70
2019-05-01T22:18:34.233Z,4.60
2019-05-01T22:21:28.927Z,5.63
2019-05-01T22:24:20.614Z,5.90
2019-05-01T22:27:04.726Z,2.50
2019-05-01T22:29:40.087Z,3.70
2019-05-01T22:32:37.864Z,1.13
2019-05-01T22:35:32.155Z,4.23
2019-05-01T22:38:02.546Z,5.10
2019-05-01T22:41:05.556Z,3.93
2019-05-01T22:43:25.610Z,3.13
2019-05-01T22:45:56.383Z,4.43
2019-05-01T22:48:27.587Z,4.90
2019-05-01T22:51:01.011Z,2.43
2019-05-01T22:53:31.089Z,6.90
2019-05-01T22:56:02.201Z,5.67
2019-05-01T22:58:33.443Z,2.10
2019-05-01T23:01:04.956Z,4.00
2019-05-01T23:03:43.622Z,5.40
2019-05-01T23:06:13.873Z,3.13
2019-05-01T23:08:46.183Z,3.57
2019-05-01T23:11:20.070Z,5.93
2019-05-01T23:13:49.403Z,3.30
2019-05-01T23:16:22.580Z,4.10
2019-05-01T23:18:53.521Z,5.20
2019-05-01T23:21:23.967Z,1.93
2019-05-01T23:23:56.980Z,3.70
2019-05-01T23:26:26.993Z,4.80
2019-05-01T23:28:57.822Z,3.97
2019-05-01T23:31:28.428Z,4.67
2019-05-01T23:33:59.016Z,4.10
2019-05-01T23:36:29.413Z,3.50
2019-05-01T23:39:00.094Z,4.23
2019-05-01T23:41:45.139Z,3.87
2019-05-01T23:44:03.734Z,3.80
2019-05-01T23:46:35.068Z,3.97
2019-05-01T23:49:05.567Z,4.17
2019-05-01T23:51:36.747Z,4.90
2019-05-01T23:54:07.631Z,3.90
2019-05-01T23:56:38.136Z,4.60
2019-05-01T23:59:08.511Z,5.10
